createdAt,value
2022-07-29T00:01:58.928Z,81.40
2022-07-29T00:06:22.095Z,82.30
2022-07-29T00:10:44.296Z,83.80
2022-07-29T00:15:06.855Z,85.20
2022-07-29T00:19:28.835Z,87.10
2022-07-29T00:23:50.835Z,88.30
2022-07-29T00:28:13.155Z,90.10
2022-07-29T00:32:35.781Z,91.10
2022-07-29T00:36:58.375Z,92.00
2022-07-29T00:41:20.576Z,93.00
2022-07-29T00:45:43.342Z,93.90
2022-07-29T00:50:07.595Z,94.80
2022-07-29T00:54:30.377Z,95.80
2022-07-29T00:58:52.795Z,96.80
2022-07-29T01:03:14.896Z,98.10
2022-07-29T01:07:38.475Z,99.30
2022-07-29T01:12:01.277Z,99.90
2022-07-29T01:16:33.084Z,99.90
2022-07-29T01:21:31.815Z,99.90
2022-07-29T01:26:33.899Z,99.90
2022-07-29T01:30:57.431Z,99.90
2022-07-29T01:35:32.735Z,99.90
2022-07-29T01:40:00.108Z,99.90
2022-07-29T01:45:05.254Z,99.90
2022-07-29T01:49:32.775Z,99.90
2022-07-29T01:54:44.076Z,99.90
2022-07-29T01:59:16.395Z,99.90
2022-07-29T02:03:40.334Z,99.90
2022-07-29T02:08:03.521Z,99.90
2022-07-29T02:12:26.834Z,99.90
2022-07-29T02:16:54.895Z,99.90
2022-07-29T02:21:25.537Z,99.90
2022-07-29T02:25:52.776Z,99.90
2022-07-29T02:30:15.536Z,99.90
2022-07-29T02:34:39.755Z,99.90
2022-07-29T02:39:04.034Z,99.90
2022-07-29T02:43:27.094Z,99.90
2022-07-29T02:47:51.739Z,99.90
2022-07-29T02:52:27.534Z,99.90
2022-07-29T02:56:53.899Z,99.90
2022-07-29T03:01:25.193Z,99.90
2022-07-29T03:05:47.175Z,99.90
2022-07-29T03:10:11.037Z,99.90
2022-07-29T03:14:37.076Z,99.90
2022-07-29T03:18:59.738Z,99.90
2022-07-29T03:23:27.183Z,99.90
2022-07-29T03:27:55.592Z,99.90
2022-07-29T03:32:21.682Z,99.90
2022-07-29T03:36:48.434Z,99.90
2022-07-29T03:41:12.834Z,99.90
2022-07-29T03:45:36.025Z,99.90
2022-07-29T03:50:06.974Z,99.90
2022-07-29T03:54:33.834Z,99.90
2022-07-29T03:58:56.793Z,99.90
2022-07-29T04:03:18.851Z,99.90
2022-07-29T04:07:41.953Z,99.90
2022-07-29T04:12:04.546Z,99.90
2022-07-29T04:16:26.776Z,99.90
2022-07-29T04:20:48.916Z,99.90
2022-07-29T04:25:11.315Z,99.90
2022-07-29T04:29:33.093Z,99.90
2022-07-29T04:33:55.290Z,99.90
2022-07-29T04:38:17.495Z,99.90
2022-07-29T04:42:43.963Z,99.90
2022-07-29T04:47:10.026Z,99.90
2022-07-29T04:51:32.394Z,99.90
2022-07-29T04:55:54.594Z,99.90
2022-07-29T05:00:16.676Z,99.90
2022-07-29T05:04:38.734Z,98.10
2022-07-29T05:09:00.573Z,92.50
2022-07-29T05:13:22.453Z,83.60
2022-07-29T05:17:44.713Z,80.20
2022-07-29T05:22:06.934Z,80.60
2022-07-29T05:26:28.934Z,83.00
2022-07-29T05:30:51.178Z,85.30
2022-07-29T05:35:14.755Z,88.20
2022-07-29T05:39:48.591Z,90.20
2022-07-29T05:44:12.711Z,90.90
2022-07-29T05:48:35.175Z,91.80
2022-07-29T05:52:57.237Z,92.00
2022-07-29T05:57:25.156Z,91.80
2022-07-29T06:01:47.182Z,91.90
2022-07-29T06:06:09.933Z,92.40
2022-07-29T06:10:31.792Z,92.60
2022-07-29T06:14:54.338Z,92.50
2022-07-29T06:19:20.514Z,92.80
2022-07-29T06:23:42.394Z,92.80
2022-07-29T06:28:05.033Z,92.90
2022-07-29T06:32:27.441Z,92.70
2022-07-29T06:36:50.833Z,92.10
2022-07-29T06:41:17.083Z,92.20
2022-07-29T06:45:42.614Z,92.40
2022-07-29T06:50:06.093Z,91.80
2022-07-29T06:54:29.773Z,92.10
2022-07-29T06:58:51.894Z,92.60
2022-07-29T07:03:14.113Z,92.50
2022-07-29T07:07:36.074Z,92.90
2022-07-29T07:11:58.272Z,93.20
2022-07-29T07:16:20.402Z,93.60
2022-07-29T07:20:42.852Z,93.70
2022-07-29T07:25:05.352Z,93.80
2022-07-29T07:29:27.497Z,93.80
2022-07-29T07:33:49.692Z,93.50
2022-07-29T07:38:11.636Z,93.20
2022-07-29T07:42:34.232Z,93.50
2022-07-29T07:46:56.233Z,94.70
2022-07-29T07:51:18.432Z,95.10
2022-07-29T07:56:09.241Z,94.50
2022-07-29T08:00:26.933Z,92.80
2022-07-29T08:04:49.133Z,89.70
2022-07-29T08:09:28.091Z,90.20
2022-07-29T08:13:51.372Z,89.50
2022-07-29T08:18:14.840Z,85.60
2022-07-29T08:22:37.093Z,82.90
2022-07-29T08:26:58.992Z,78.10
2022-07-29T08:31:20.877Z,63.20
2022-07-29T08:35:43.492Z,62.30
2022-07-29T08:40:07.457Z,56.90
2022-07-29T08:44:30.957Z,50.90
2022-07-29T08:48:53.408Z,45.80
2022-07-29T08:53:19.135Z,40.30
2022-07-29T08:57:43.436Z,36.60
2022-07-29T09:02:24.252Z,34.90
2022-07-29T09:06:50.554Z,35.60
2022-07-29T09:11:14.848Z,34.00
2022-07-29T09:15:36.914Z,32.50
2022-07-29T09:20:11.713Z,33.60
2022-07-29T09:24:48.481Z,37.10
2022-07-29T09:29:21.832Z,39.90
2022-07-29T09:33:43.853Z,38.30
2022-07-29T09:38:15.573Z,35.60
2022-07-29T09:42:37.874Z,35.70
2022-07-29T09:47:08.352Z,35.10
2022-07-29T09:51:38.295Z,35.00
2022-07-29T09:56:01.595Z,36.90
2022-07-29T10:00:24.225Z,36.40
2022-07-29T10:04:46.474Z,37.00
2022-07-29T10:09:12.534Z,36.80
2022-07-29T10:13:34.636Z,36.60
2022-07-29T10:17:58.095Z,35.90
2022-07-29T10:22:50.469Z,34.50
2022-07-29T10:27:05.413Z,35.40
2022-07-29T10:31:45.328Z,34.80
2022-07-29T10:36:28.655Z,36.00
2022-07-29T10:41:29.018Z,36.00
2022-07-29T10:46:01.701Z,37.10
2022-07-29T10:50:24.295Z,37.60
2022-07-29T10:54:51.178Z,36.30
2022-07-29T10:59:22.738Z,37.80
2022-07-29T11:03:53.579Z,41.10
2022-07-29T11:08:20.127Z,41.40
2022-07-29T11:12:43.513Z,43.10
2022-07-29T11:17:07.575Z,42.10
2022-07-29T11:21:53.438Z,42.30
2022-07-29T11:26:28.674Z,40.90
2022-07-29T11:30:54.214Z,42.80
2022-07-29T11:35:38.414Z,41.40
2022-07-29T11:40:05.133Z,41.40
2022-07-29T11:45:43.713Z,42.00
2022-07-29T11:49:54.534Z,42.80
2022-07-29T11:54:57.205Z,43.40
2022-07-29T11:59:20.633Z,43.70
2022-07-29T12:03:43.623Z,44.40
2022-07-29T12:08:22.917Z,44.80
2022-07-29T12:12:53.955Z,45.90
2022-07-29T12:17:32.814Z,46.90
2022-07-29T12:21:59.670Z,46.60
2022-07-29T12:26:25.534Z,45.40
2022-07-29T12:30:51.593Z,45.00
2022-07-29T12:35:23.153Z,43.90
2022-07-29T12:39:45.413Z,44.80
2022-07-29T12:44:07.433Z,45.00
2022-07-29T12:48:44.456Z,46.20
2022-07-29T12:53:12.973Z,47.80
2022-07-29T12:57:51.913Z,48.20
2022-07-29T13:02:24.105Z,48.40
2022-07-29T13:06:49.574Z,48.40
2022-07-29T13:11:48.183Z,48.30
2022-07-29T13:16:11.934Z,48.10
2022-07-29T13:20:34.376Z,48.30
2022-07-29T13:25:05.195Z,49.20
2022-07-29T13:29:31.456Z,49.70
2022-07-29T13:34:03.754Z,50.30
2022-07-29T13:38:30.923Z,49.90
2022-07-29T13:42:53.295Z,50.10
2022-07-29T13:47:15.374Z,49.70
2022-07-29T13:51:37.334Z,49.50
2022-07-29T13:55:59.733Z,51.30
2022-07-29T14:00:21.874Z,53.60
2022-07-29T14:04:43.687Z,53.80
2022-07-29T14:09:07.455Z,54.80
2022-07-29T14:13:29.654Z,55.30
2022-07-29T14:17:51.895Z,58.60
2022-07-29T14:22:14.158Z,59.50
2022-07-29T14:26:35.962Z,59.20
2022-07-29T14:30:57.854Z,58.30
2022-07-29T14:35:19.893Z,57.80
2022-07-29T14:39:43.382Z,57.90
2022-07-29T14:44:09.076Z,59.40
2022-07-29T14:48:31.154Z,58.60
2022-07-29T14:52:54.173Z,59.30
2022-07-29T14:57:16.574Z,59.60
2022-07-29T15:01:38.707Z,61.90
2022-07-29T15:06:00.915Z,63.70
2022-07-29T15:10:24.720Z,72.80
2022-07-29T15:14:46.935Z,81.10
2022-07-29T15:19:10.055Z,89.60
2022-07-29T15:23:32.433Z,94.40
2022-07-29T15:27:57.775Z,97.70
2022-07-29T15:32:22.853Z,99.30
2022-07-29T15:36:53.356Z,99.90
2022-07-29T15:41:16.657Z,99.90
2022-07-29T15:45:43.025Z,99.90
2022-07-29T15:50:07.494Z,99.90
2022-07-29T15:54:30.473Z,99.90
2022-07-29T15:58:52.954Z,99.90
2022-07-29T16:03:15.093Z,99.90
2022-07-29T16:07:37.976Z,99.90
2022-07-29T16:11:59.954Z,99.90
2022-07-29T16:16:22.019Z,99.90
2022-07-29T16:20:44.094Z,99.90
2022-07-29T16:25:07.094Z,99.90
2022-07-29T16:29:32.394Z,99.90
2022-07-29T16:33:55.962Z,99.90
2022-07-29T16:38:18.614Z,99.90
2022-07-29T16:42:48.407Z,99.90
2022-07-29T16:47:10.633Z,99.90
2022-07-29T16:51:34.454Z,99.90
2022-07-29T16:55:56.374Z,99.90
2022-07-29T17:00:19.310Z,99.90
2022-07-29T17:04:41.633Z,99.90
2022-07-29T17:09:09.940Z,99.90
2022-07-29T17:13:31.920Z,99.90
2022-07-29T17:17:56.505Z,99.90
2022-07-29T17:22:19.687Z,99.90
2022-07-29T17:26:43.455Z,99.90
2022-07-29T17:31:05.682Z,99.90
2022-07-29T17:35:46.675Z,99.90
2022-07-29T17:40:09.576Z,99.90
2022-07-29T17:44:32.421Z,99.90
2022-07-29T17:48:58.690Z,99.90
2022-07-29T17:53:21.414Z,99.90
2022-07-29T17:57:43.611Z,99.90
2022-07-29T18:02:06.071Z,99.90
2022-07-29T18:06:29.274Z,99.90
2022-07-29T18:10:51.896Z,99.90
2022-07-29T18:15:14.115Z,99.90
2022-07-29T18:19:36.334Z,99.90
2022-07-29T18:24:02.854Z,99.90
2022-07-29T18:28:25.416Z,99.90
2022-07-29T18:33:18.202Z,99.90
2022-07-29T18:38:01.420Z,99.90
2022-07-29T18:42:15.955Z,99.90
2022-07-29T18:46:38.446Z,99.90
2022-07-29T18:51:09.772Z,99.90
2022-07-29T18:55:32.345Z,99.90
2022-07-29T18:59:54.533Z,99.90
2022-07-29T19:04:20.578Z,99.90
2022-07-29T19:08:43.514Z,99.90
2022-07-29T19:13:06.273Z,99.90
2022-07-29T19:17:28.334Z,99.90
2022-07-29T19:21:50.374Z,99.90
2022-07-29T19:26:12.375Z,99.90
2022-07-29T19:30:42.574Z,99.90
2022-07-29T19:35:38.306Z,99.90
2022-07-29T19:40:00.493Z,99.90
2022-07-29T19:44:22.874Z,99.90
2022-07-29T19:48:45.145Z,99.90
2022-07-29T19:53:07.014Z,99.90
2022-07-29T19:57:29.893Z,99.90
2022-07-29T20:02:02.850Z,99.90
2022-07-29T20:06:24.993Z,99.90
2022-07-29T20:10:47.255Z,99.90
2022-07-29T20:15:16.512Z,99.90
2022-07-29T20:19:39.214Z,99.90
2022-07-29T20:24:02.576Z,99.90
2022-07-29T20:28:25.166Z,99.90
2022-07-29T20:32:47.295Z,99.90
2022-07-29T20:37:17.914Z,99.90
2022-07-29T20:41:39.994Z,99.90
2022-07-29T20:46:01.721Z,99.90
2022-07-29T20:50:24.661Z,99.90
2022-07-29T20:54:47.515Z,99.90
2022-07-29T20:59:09.755Z,99.90
2022-07-29T21:03:33.234Z,99.90
2022-07-29T21:07:58.319Z,99.90
2022-07-29T21:12:20.254Z,99.90
2022-07-29T21:16:42.755Z,99.90
2022-07-29T21:21:07.114Z,99.90
2022-07-29T21:25:29.575Z,99.90
2022-07-29T21:29:51.934Z,99.90
2022-07-29T21:34:14.715Z,99.90
2022-07-29T21:38:39.175Z,99.90
2022-07-29T21:43:01.155Z,99.90
2022-07-29T21:47:23.215Z,99.90
2022-07-29T21:51:45.274Z,99.90
2022-07-29T21:56:12.417Z,99.90
2022-07-29T22:00:38.355Z,99.90
2022-07-29T22:05:00.256Z,99.90
2022-07-29T22:09:22.414Z,99.90
2022-07-29T22:13:44.757Z,99.90
2022-07-29T22:18:07.175Z,99.90
2022-07-29T22:22:29.234Z,99.90
2022-07-29T22:26:51.435Z,99.90
2022-07-29T22:31:13.783Z,99.90
2022-07-29T22:35:35.903Z,99.90
2022-07-29T22:39:57.874Z,99.90
2022-07-29T22:44:20.135Z,99.90
2022-07-29T22:48:42.408Z,99.90
2022-07-29T22:53:04.415Z,99.90
2022-07-29T22:57:26.577Z,99.90
2022-07-29T23:01:49.192Z,99.90
2022-07-29T23:06:11.212Z,99.90
2022-07-29T23:10:33.334Z,99.90
2022-07-29T23:14:55.774Z,99.90
2022-07-29T23:19:17.852Z,99.90
2022-07-29T23:23:49.552Z,99.90
2022-07-29T23:28:13.273Z,99.90
2022-07-29T23:32:35.674Z,99.90
2022-07-29T23:36:58.178Z,99.90
2022-07-29T23:41:21.612Z,99.90
2022-07-29T23:45:48.465Z,99.90
2022-07-29T23:50:12.836Z,99.90
2022-07-29T23:54:35.452Z,99.90
2022-07-29T23:58:57.734Z,99.90
